createdAt,value
2019-03-22T00:06:22.032Z,54.60
2019-03-22T00:16:27.946Z,54.50
2019-03-22T00:26:33.538Z,54.50
2019-03-22T00:36:39.241Z,55.00
2019-03-22T00:46:44.943Z,55.00
2019-03-22T00:56:50.606Z,55.00
2019-03-22T01:06:56.700Z,55.20
2019-03-22T01:17:02.550Z,55.20
2019-03-22T01:27:08.658Z,55.40
2019-03-22T01:37:14.495Z,55.70
2019-03-22T01:47:20.274Z,57.40
2019-03-22T01:57:26.415Z,57.40
2019-03-22T02:07:32.714Z,56.80
2019-03-22T02:17:38.638Z,56.70
2019-03-22T02:27:45.250Z,56.60
2019-03-22T02:37:51.269Z,57.10
2019-03-22T02:47:57.102Z,57.00
2019-03-22T02:58:19.153Z,57.70
2019-03-22T03:08:11.167Z,57.10
2019-03-22T03:18:17.111Z,57.10
2019-03-22T03:28:35.930Z,57.20
2019-03-22T03:38:30.471Z,57.10
2019-03-22T03:48:36.276Z,57.20
2019-03-22T03:58:52.113Z,57.50
2019-03-22T04:08:49.972Z,57.40
2019-03-22T04:18:56.088Z,57.50
2019-03-22T04:29:07.956Z,57.60
2019-03-22T04:39:10.246Z,57.60
2019-03-22T04:49:17.454Z,57.70
2019-03-22T04:59:24.431Z,57.70
2019-03-22T05:09:32.795Z,57.80
2019-03-22T05:19:41.790Z,57.80
2019-03-22T05:29:48.848Z,57.90
2019-03-22T05:39:54.651Z,57.80
2019-03-22T05:50:01.264Z,58.00
2019-03-22T06:00:07.260Z,57.90
2019-03-22T06:10:13.173Z,58.00
2019-03-22T06:20:19.362Z,58.00
2019-03-22T06:30:25.187Z,58.10
2019-03-22T06:40:31.294Z,58.20
2019-03-22T06:50:37.399Z,57.90
2019-03-22T07:00:43.771Z,58.10
2019-03-22T07:10:49.662Z,58.00
2019-03-22T07:20:55.572Z,57.80
2019-03-22T07:31:01.371Z,57.70
2019-03-22T07:41:07.276Z,57.70
2019-03-22T07:51:13.810Z,57.40
2019-03-22T08:01:19.800Z,57.20
2019-03-22T08:11:25.871Z,56.90
2019-03-22T08:21:31.754Z,56.70
2019-03-22T08:31:37.555Z,56.40
2019-03-22T08:41:43.891Z,56.50
2019-03-22T08:51:49.931Z,56.80
2019-03-22T09:01:55.864Z,56.70
2019-03-22T09:12:02.826Z,56.20
2019-03-22T09:22:08.981Z,55.70
2019-03-22T09:32:15.062Z,56.10
2019-03-22T09:42:21.159Z,55.50
2019-03-22T09:52:27.041Z,55.30
2019-03-22T10:02:33.204Z,55.30
2019-03-22T10:12:39.136Z,54.70
2019-03-22T10:22:45.181Z,53.70
2019-03-22T10:32:51.088Z,53.00
2019-03-22T10:42:56.938Z,51.50
2019-03-22T10:53:02.747Z,49.30
2019-03-22T11:03:08.601Z,45.80
2019-03-22T11:13:15.170Z,43.30
2019-03-22T11:23:21.089Z,40.20
2019-03-22T11:33:27.140Z,35.80
2019-03-22T11:43:32.969Z,35.90
2019-03-22T11:53:38.784Z,34.70
2019-03-22T12:03:44.867Z,32.10
2019-03-22T12:13:51.029Z,32.80
2019-03-22T12:23:57.184Z,31.50
2019-03-22T12:34:04.253Z,30.30
2019-03-22T12:44:10.455Z,29.80
2019-03-22T12:54:16.261Z,28.60
2019-03-22T13:04:22.873Z,28.10
2019-03-22T13:14:28.725Z,27.20
2019-03-22T13:24:34.598Z,27.20
2019-03-22T13:34:40.740Z,26.00
2019-03-22T13:44:46.644Z,25.40
2019-03-22T13:54:52.597Z,25.10
2019-03-22T14:04:58.489Z,24.60
2019-03-22T14:15:04.643Z,24.60
2019-03-22T14:25:10.856Z,23.70
2019-03-22T14:35:16.736Z,25.60
2019-03-22T14:45:23.150Z,24.50
2019-03-22T14:55:27.940Z,23.90
2019-03-22T15:05:33.838Z,24.60
2019-03-22T15:15:51.052Z,22.40
2019-03-22T15:26:28.462Z,20.20
2019-03-22T15:37:02.374Z,19.50
2019-03-22T15:47:08.333Z,20.80
2019-03-22T15:57:14.576Z,21.90
2019-03-22T16:07:20.531Z,23.50
2019-03-22T16:17:26.616Z,22.60
2019-03-22T16:27:32.792Z,26.20
2019-03-22T16:37:38.719Z,30.30
2019-03-22T16:47:44.657Z,32.70
2019-03-22T16:57:50.523Z,34.30
2019-03-22T17:07:56.340Z,35.30
2019-03-22T17:18:02.180Z,36.50
2019-03-22T17:28:08.108Z,37.10
2019-03-22T17:38:13.974Z,38.30
2019-03-22T17:48:20.391Z,39.40
2019-03-22T17:58:26.232Z,40.50
2019-03-22T18:08:32.319Z,41.20
2019-03-22T18:18:38.122Z,41.70
2019-03-22T18:28:44.174Z,42.60
2019-03-22T18:38:50.271Z,43.50
2019-03-22T18:48:56.310Z,44.20
2019-03-22T18:59:02.464Z,45.20
2019-03-22T19:09:09.237Z,45.10
2019-03-22T19:19:15.602Z,46.30
2019-03-22T19:29:21.426Z,46.50
2019-03-22T19:39:27.350Z,46.70
2019-03-22T19:49:33.428Z,46.70
2019-03-22T19:59:39.493Z,46.80
2019-03-22T20:09:45.360Z,47.20
2019-03-22T20:19:51.161Z,47.40
2019-03-22T20:29:56.963Z,48.40
2019-03-22T20:40:03.230Z,49.00
2019-03-22T20:50:09.460Z,49.10
2019-03-22T21:00:16.191Z,50.20
2019-03-22T21:10:21.840Z,49.50
2019-03-22T21:20:27.743Z,50.80
2019-03-22T21:30:33.772Z,51.70
2019-03-22T21:40:39.666Z,52.00
2019-03-22T21:50:45.549Z,53.00
2019-03-22T22:00:51.668Z,52.80
2019-03-22T22:11:00.001Z,54.20
2019-03-22T22:21:05.140Z,54.70
2019-03-22T22:31:11.043Z,55.10
2019-03-22T22:41:16.941Z,55.50
2019-03-22T22:51:23.062Z,57.10
2019-03-22T23:01:29.169Z,56.90
2019-03-22T23:11:35.303Z,57.00
2019-03-22T23:21:41.124Z,56.80
2019-03-22T23:31:49.132Z,56.50
2019-03-22T23:41:54.540Z,57.20
2019-03-22T23:52:00.360Z,56.80
